sensor_id;sensor_type;location;lat;lon;timestamp;P1;P2;P0
73241;PMS5003;65659;49.234;-2.094;2023-04-24T00:01:44;13;13;
73241;PMS5003;65659;49.234;-2.094;2023-04-24T00:04:09;12;11;
73241;PMS5003;65659;49.234;-2.094;2023-04-24T00:06:40;10;10;
73241;PMS5003;65659;49.234;-2.094;2023-04-24T00:09:00;11;11;
73241;PMS5003;65659;49.234;-2.094;2023-04-24T00:11:25;13;13;
73241;PMS5003;65659;49.234;-2.094;2023-04-24T00:13:51;9;9;
73241;PMS5003;65659;49.234;-2.094;2023-04-24T00:16:21;12;11;
73241;PMS5003;65659;49.234;-2.094;2023-04-24T00:18:42;11;11;
73241;PMS5003;65659;49.234;-2.094;2023-04-24T00:21:07;13;12;
73241;PMS5003;65659;49.234;-2.094;2023-04-24T00:23:32;9;9;
73241;PMS5003;65659;49.234;-2.094;2023-04-24T00:25:57;14;12;
73241;PMS5003;65659;49.234;-2.094;2023-04-24T00:28:22;14;13;
73241;PMS5003;65659;49.234;-2.094;2023-04-24T00:30:48;12;11;
73241;PMS5003;65659;49.234;-2.094;2023-04-24T00:33:18;19;18;
73241;PMS5003;65659;49.234;-2.094;2023-04-24T00:35:38;16;15;
73241;PMS5003;65659;49.234;-2.094;2023-04-24T00:38:03;13;13;
73241;PMS5003;65659;49.234;-2.094;2023-04-24T00:40:28;15;14;
73241;PMS5003;65659;49.234;-2.094;2023-04-24T00:42:53;13;12;
73241;PMS5003;65659;49.234;-2.094;2023-04-24T00:45:19;18;17;
73241;PMS5003;65659;49.234;-2.094;2023-04-24T00:47:44;15;15;
73241;PMS5003;65659;49.234;-2.094;2023-04-24T00:50:10;17;16;
73241;PMS5003;65659;49.234;-2.094;2023-04-24T00:52:35;18;17;
73241;PMS5003;65659;49.234;-2.094;2023-04-24T00:55:00;15;15;
73241;PMS5003;65659;49.234;-2.094;2023-04-24T00:57:26;17;16;
73241;PMS5003;65659;49.234;-2.094;2023-04-24T00:59:51;16;16;
73241;PMS5003;65659;49.234;-2.094;2023-04-24T01:02:16;15;15;
73241;PMS5003;65659;49.234;-2.094;2023-04-24T01:04:42;18;18;
73241;PMS5003;65659;49.234;-2.094;2023-04-24T01:07:07;17;17;
73241;PMS5003;65659;49.234;-2.094;2023-04-24T01:09:33;17;15;
73241;PMS5003;65659;49.234;-2.094;2023-04-24T01:11:58;19;18;
73241;PMS5003;65659;49.234;-2.094;2023-04-24T01:14:23;13;12;
73241;PMS5003;65659;49.234;-2.094;2023-04-24T01:16:48;16;16;
73241;PMS5003;65659;49.234;-2.094;2023-04-24T01:19:13;14;14;
73241;PMS5003;65659;49.234;-2.094;2023-04-24T01:21:40;17;17;
73241;PMS5003;65659;49.234;-2.094;2023-04-24T01:24:05;16;15;
73241;PMS5003;65659;49.234;-2.094;2023-04-24T01:26:29;16;16;
73241;PMS5003;65659;49.234;-2.094;2023-04-24T01:28:54;17;16;
73241;PMS5003;65659;49.234;-2.094;2023-04-24T01:31:25;22;19;
73241;PMS5003;65659;49.234;-2.094;2023-04-24T01:33:45;17;16;
73241;PMS5003;65659;49.234;-2.094;2023-04-24T01:36:11;20;18;
73241;PMS5003;65659;49.234;-2.094;2023-04-24T01:38:36;17;17;
73241;PMS5003;65659;49.234;-2.094;2023-04-24T01:41:01;17;17;
73241;PMS5003;65659;49.234;-2.094;2023-04-24T01:43:26;16;16;
73241;PMS5003;65659;49.234;-2.094;2023-04-24T01:45:52;19;18;
73241;PMS5003;65659;49.234;-2.094;2023-04-24T01:48:27;17;17;
73241;PMS5003;65659;49.234;-2.094;2023-04-24T01:50:47;17;16;
73241;PMS5003;65659;49.234;-2.094;2023-04-24T01:53:07;17;17;
73241;PMS5003;65659;49.234;-2.094;2023-04-24T01:55:32;16;14;
73241;PMS5003;65659;49.234;-2.094;2023-04-24T01:57:58;18;18;
73241;PMS5003;65659;49.234;-2.094;2023-04-24T02:00:28;22;22;
73241;PMS5003;65659;49.234;-2.094;2023-04-24T02:02:49;17;16;
73241;PMS5003;65659;49.234;-2.094;2023-04-24T02:05:14;13;13;
73241;PMS5003;65659;49.234;-2.094;2023-04-24T02:07:40;14;14;
73241;PMS5003;65659;49.234;-2.094;2023-04-24T02:10:06;14;14;
73241;PMS5003;65659;49.234;-2.094;2023-04-24T02:12:30;16;15;
73241;PMS5003;65659;49.234;-2.094;2023-04-24T02:15:01;16;16;
73241;PMS5003;65659;49.234;-2.094;2023-04-24T02:17:22;16;16;
73241;PMS5003;65659;49.234;-2.094;2023-04-24T02:19:47;21;19;
73241;PMS5003;65659;49.234;-2.094;2023-04-24T02:22:12;16;16;
73241;PMS5003;65659;49.234;-2.094;2023-04-24T02:24:38;17;17;
73241;PMS5003;65659;49.234;-2.094;2023-04-24T02:27:03;13;13;
73241;PMS5003;65659;49.234;-2.094;2023-04-24T02:29:29;16;15;
73241;PMS5003;65659;49.234;-2.094;2023-04-24T02:31:54;16;15;
73241;PMS5003;65659;49.234;-2.094;2023-04-24T02:34:20;12;11;
73241;PMS5003;65659;49.234;-2.094;2023-04-24T02:36:46;14;14;
73241;PMS5003;65659;49.234;-2.094;2023-04-24T02:39:11;16;15;
73241;PMS5003;65659;49.234;-2.094;2023-04-24T02:41:37;18;17;
73241;PMS5003;65659;49.234;-2.094;2023-04-24T02:44:02;17;16;
73241;PMS5003;65659;49.234;-2.094;2023-04-24T02:46:28;13;13;
73241;PMS5003;65659;49.234;-2.094;2023-04-24T02:48:53;15;15;
73241;PMS5003;65659;49.234;-2.094;2023-04-24T02:51:18;17;17;
73241;PMS5003;65659;49.234;-2.094;2023-04-24T02:53:44;14;14;
73241;PMS5003;65659;49.234;-2.094;2023-04-24T02:56:09;16;16;
73241;PMS5003;65659;49.234;-2.094;2023-04-24T02:58:34;16;15;
73241;PMS5003;65659;49.234;-2.094;2023-04-24T03:01:00;12;12;
73241;PMS5003;65659;49.234;-2.094;2023-04-24T03:03:31;14;14;
73241;PMS5003;65659;49.234;-2.094;2023-04-24T03:05:50;12;11;
73241;PMS5003;65659;49.234;-2.094;2023-04-24T03:08:21;13;12;
73241;PMS5003;65659;49.234;-2.094;2023-04-24T03:10:41;13;12;
73241;PMS5003;65659;49.234;-2.094;2023-04-24T03:13:06;13;13;
73241;PMS5003;65659;49.234;-2.094;2023-04-24T03:15:31;12;12;
73241;PMS5003;65659;49.234;-2.094;2023-04-24T03:17:56;13;13;
73241;PMS5003;65659;49.234;-2.094;2023-04-24T03:20:22;12;12;
73241;PMS5003;65659;49.234;-2.094;2023-04-24T03:22:47;12;11;
73241;PMS5003;65659;49.234;-2.094;2023-04-24T03:25:13;13;13;
73241;PMS5003;65659;49.234;-2.094;2023-04-24T03:27:38;12;12;
73241;PMS5003;65659;49.234;-2.094;2023-04-24T03:30:08;13;13;
73241;PMS5003;65659;49.234;-2.094;2023-04-24T03:32:29;15;15;
73241;PMS5003;65659;49.234;-2.094;2023-04-24T03:34:54;14;14;
73241;PMS5003;65659;49.234;-2.094;2023-04-24T03:37:25;12;12;
73241;PMS5003;65659;49.234;-2.094;2023-04-24T03:39:45;14;14;
73241;PMS5003;65659;49.234;-2.094;2023-04-24T03:42:11;11;11;
73241;PMS5003;65659;49.234;-2.094;2023-04-24T03:44:36;11;11;
73241;PMS5003;65659;49.234;-2.094;2023-04-24T03:47:01;11;10;
73241;PMS5003;65659;49.234;-2.094;2023-04-24T03:49:27;9;9;
73241;PMS5003;65659;49.234;-2.094;2023-04-24T03:51:52;12;10;
73241;PMS5003;65659;49.234;-2.094;2023-04-24T03:54:17;12;12;
73241;PMS5003;65659;49.234;-2.094;2023-04-24T03:56:48;14;14;
73241;PMS5003;65659;49.234;-2.094;2023-04-24T03:59:09;11;11;
73241;PMS5003;65659;49.234;-2.094;2023-04-24T04:01:34;14;14;
73241;PMS5003;65659;49.234;-2.094;2023-04-24T04:04:04;11;11;
73241;PMS5003;65659;49.234;-2.094;2023-04-24T04:06:24;12;11;
73241;PMS5003;65659;49.234;-2.094;2023-04-24T04:08:49;12;12;
73241;PMS5003;65659;49.234;-2.094;2023-04-24T04:11:19;9;8;
73241;PMS5003;65659;49.234;-2.094;2023-04-24T04:13:40;15;15;
73241;PMS5003;65659;49.234;-2.094;2023-04-24T04:16:15;12;11;
73241;PMS5003;65659;49.234;-2.094;2023-04-24T04:18:30;11;10;
73241;PMS5003;65659;49.234;-2.094;2023-04-24T04:20:56;11;11;
73241;PMS5003;65659;49.234;-2.094;2023-04-24T04:23:22;12;12;
73241;PMS5003;65659;49.234;-2.094;2023-04-24T04:25:47;14;13;
73241;PMS5003;65659;49.234;-2.094;2023-04-24T04:28:12;15;14;
73241;PMS5003;65659;49.234;-2.094;2023-04-24T04:30:38;15;15;
73241;PMS5003;65659;49.234;-2.094;2023-04-24T04:33:03;12;12;
73241;PMS5003;65659;49.234;-2.094;2023-04-24T04:35:28;11;10;
73241;PMS5003;65659;49.234;-2.094;2023-04-24T04:37:53;13;11;
73241;PMS5003;65659;49.234;-2.094;2023-04-24T04:40:19;12;11;
73241;PMS5003;65659;49.234;-2.094;2023-04-24T04:42:45;10;9;
73241;PMS5003;65659;49.234;-2.094;2023-04-24T04:45:10;11;11;
73241;PMS5003;65659;49.234;-2.094;2023-04-24T04:47:35;13;13;
73241;PMS5003;65659;49.234;-2.094;2023-04-24T04:50:00;13;12;
73241;PMS5003;65659;49.234;-2.094;2023-04-24T04:52:37;11;10;
73241;PMS5003;65659;49.234;-2.094;2023-04-24T04:54:51;12;12;
73241;PMS5003;65659;49.234;-2.094;2023-04-24T04:57:21;11;11;
73241;PMS5003;65659;49.234;-2.094;2023-04-24T04:59:41;10;10;
73241;PMS5003;65659;49.234;-2.094;2023-04-24T05:02:06;9;9;
73241;PMS5003;65659;49.234;-2.094;2023-04-24T05:04:31;13;13;
73241;PMS5003;65659;49.234;-2.094;2023-04-24T05:06:57;13;13;
73241;PMS5003;65659;49.234;-2.094;2023-04-24T05:09:22;13;13;
73241;PMS5003;65659;49.234;-2.094;2023-04-24T05:11:47;14;13;
73241;PMS5003;65659;49.234;-2.094;2023-04-24T05:14:12;12;11;
73241;PMS5003;65659;49.234;-2.094;2023-04-24T05:16:38;12;12;
73241;PMS5003;65659;49.234;-2.094;2023-04-24T05:19:03;14;13;
73241;PMS5003;65659;49.234;-2.094;2023-04-24T05:21:28;11;11;
73241;PMS5003;65659;49.234;-2.094;2023-04-24T05:23:53;9;9;
73241;PMS5003;65659;49.234;-2.094;2023-04-24T05:26:18;10;9;
73241;PMS5003;65659;49.234;-2.094;2023-04-24T05:28:44;13;12;
73241;PMS5003;65659;49.234;-2.094;2023-04-24T05:31:09;11;10;
73241;PMS5003;65659;49.234;-2.094;2023-04-24T05:33:35;12;11;
73241;PMS5003;65659;49.234;-2.094;2023-04-24T05:36:00;13;12;
73241;PMS5003;65659;49.234;-2.094;2023-04-24T05:38:25;13;12;
73241;PMS5003;65659;49.234;-2.094;2023-04-24T05:40:50;13;13;
73241;PMS5003;65659;49.234;-2.094;2023-04-24T05:43:20;11;11;
73241;PMS5003;65659;49.234;-2.094;2023-04-24T05:45:40;11;11;
73241;PMS5003;65659;49.234;-2.094;2023-04-24T05:48:05;12;12;
73241;PMS5003;65659;49.234;-2.094;2023-04-24T05:50:31;11;11;
73241;PMS5003;65659;49.234;-2.094;2023-04-24T05:52:56;11;10;
73241;PMS5003;65659;49.234;-2.094;2023-04-24T05:55:21;12;12;
73241;PMS5003;65659;49.234;-2.094;2023-04-24T05:57:46;11;10;
73241;PMS5003;65659;49.234;-2.094;2023-04-24T06:00:12;9;9;
73241;PMS5003;65659;49.234;-2.094;2023-04-24T06:02:38;10;10;
73241;PMS5003;65659;49.234;-2.094;2023-04-24T06:05:03;8;8;
73241;PMS5003;65659;49.234;-2.094;2023-04-24T06:07:28;11;11;
73241;PMS5003;65659;49.234;-2.094;2023-04-24T06:09:54;9;9;
73241;PMS5003;65659;49.234;-2.094;2023-04-24T06:12:19;9;9;
73241;PMS5003;65659;49.234;-2.094;2023-04-24T06:14:54;7;7;
73241;PMS5003;65659;49.234;-2.094;2023-04-24T06:17:09;7;7;
73241;PMS5003;65659;49.234;-2.094;2023-04-24T06:19:36;8;7;
73241;PMS5003;65659;49.234;-2.094;2023-04-24T06:22:00;7;7;
73241;PMS5003;65659;49.234;-2.094;2023-04-24T06:24:27;6;6;
73241;PMS5003;65659;49.234;-2.094;2023-04-24T06:26:51;5;5;
73241;PMS5003;65659;49.234;-2.094;2023-04-24T06:29:16;7;7;
73241;PMS5003;65659;49.234;-2.094;2023-04-24T06:31:41;5;5;
73241;PMS5003;65659;49.234;-2.094;2023-04-24T06:34:08;5;5;
73241;PMS5003;65659;49.234;-2.094;2023-04-24T06:36:32;4;4;
73241;PMS5003;65659;49.234;-2.094;2023-04-24T06:38:57;7;6;
73241;PMS5003;65659;49.234;-2.094;2023-04-24T06:41:22;5;5;
73241;PMS5003;65659;49.234;-2.094;2023-04-24T06:43:47;4;4;
73241;PMS5003;65659;49.234;-2.094;2023-04-24T06:46:13;6;6;
73241;PMS5003;65659;49.234;-2.094;2023-04-24T06:48:38;3;3;
73241;PMS5003;65659;49.234;-2.094;2023-04-24T06:51:03;6;6;
73241;PMS5003;65659;49.234;-2.094;2023-04-24T06:53:28;2;2;
73241;PMS5003;65659;49.234;-2.094;2023-04-24T06:55:53;3;3;
73241;PMS5003;65659;49.234;-2.094;2023-04-24T06:58:18;4;4;
73241;PMS5003;65659;49.234;-2.094;2023-04-24T07:00:43;5;5;
73241;PMS5003;65659;49.234;-2.094;2023-04-24T07:03:09;3;3;
73241;PMS5003;65659;49.234;-2.094;2023-04-24T07:05:34;3;3;
73241;PMS5003;65659;49.234;-2.094;2023-04-24T07:07:59;4;4;
73241;PMS5003;65659;49.234;-2.094;2023-04-24T07:10:24;5;5;
73241;PMS5003;65659;49.234;-2.094;2023-04-24T07:12:50;4;4;
73241;PMS5003;65659;49.234;-2.094;2023-04-24T07:15:15;5;5;
73241;PMS5003;65659;49.234;-2.094;2023-04-24T07:17:40;4;3;
73241;PMS5003;65659;49.234;-2.094;2023-04-24T07:20:06;2;2;
73241;PMS5003;65659;49.234;-2.094;2023-04-24T07:22:31;5;5;
73241;PMS5003;65659;49.234;-2.094;2023-04-24T07:24:56;5;5;
73241;PMS5003;65659;49.234;-2.094;2023-04-24T07:27:22;5;5;
73241;PMS5003;65659;49.234;-2.094;2023-04-24T07:29:48;6;6;
73241;PMS5003;65659;49.234;-2.094;2023-04-24T07:32:12;4;4;
73241;PMS5003;65659;49.234;-2.094;2023-04-24T07:34:37;4;4;
73241;PMS5003;65659;49.234;-2.094;2023-04-24T07:37:02;4;4;
73241;PMS5003;65659;49.234;-2.094;2023-04-24T07:39:27;6;5;
73241;PMS5003;65659;49.234;-2.094;2023-04-24T07:41:53;5;5;
73241;PMS5003;65659;49.234;-2.094;2023-04-24T07:44:19;5;5;
73241;PMS5003;65659;49.234;-2.094;2023-04-24T07:46:44;7;6;
73241;PMS5003;65659;49.234;-2.094;2023-04-24T07:49:11;6;5;
73241;PMS5003;65659;49.234;-2.094;2023-04-24T07:51:36;6;6;
73241;PMS5003;65659;49.234;-2.094;2023-04-24T07:54:02;3;3;
73241;PMS5003;65659;49.234;-2.094;2023-04-24T07:56:27;6;6;
73241;PMS5003;65659;49.234;-2.094;2023-04-24T07:58:53;6;6;
73241;PMS5003;65659;49.234;-2.094;2023-04-24T08:01:18;6;6;
73241;PMS5003;65659;49.234;-2.094;2023-04-24T08:03:44;7;7;
73241;PMS5003;65659;49.234;-2.094;2023-04-24T08:06:21;7;6;
73241;PMS5003;65659;49.234;-2.094;2023-04-24T08:08:35;4;4;
73241;PMS5003;65659;49.234;-2.094;2023-04-24T08:11:01;6;6;
73241;PMS5003;65659;49.234;-2.094;2023-04-24T08:13:26;6;6;
73241;PMS5003;65659;49.234;-2.094;2023-04-24T08:15:51;7;7;
73241;PMS5003;65659;49.234;-2.094;2023-04-24T08:18:20;8;8;
73241;PMS5003;65659;49.234;-2.094;2023-04-24T08:20:44;7;7;
73241;PMS5003;65659;49.234;-2.094;2023-04-24T08:23:15;5;5;
73241;PMS5003;65659;49.234;-2.094;2023-04-24T08:25:35;6;6;
73241;PMS5003;65659;49.234;-2.094;2023-04-24T08:28:00;7;6;
73241;PMS5003;65659;49.234;-2.094;2023-04-24T08:32:59;7;7;
73241;PMS5003;65659;49.234;-2.094;2023-04-24T08:35:18;7;7;
73241;PMS5003;65659;49.234;-2.094;2023-04-24T08:37:42;6;6;
73241;PMS5003;65659;49.234;-2.094;2023-04-24T08:40:11;15;15;
73241;PMS5003;65659;49.234;-2.094;2023-04-24T08:42:36;15;14;
73241;PMS5003;65659;49.234;-2.094;2023-04-24T08:47:32;7;6;
73241;PMS5003;65659;49.234;-2.094;2023-04-24T08:49:50;6;5;
73241;PMS5003;65659;49.234;-2.094;2023-04-24T08:52:16;8;8;
73241;PMS5003;65659;49.234;-2.094;2023-04-24T08:54:44;9;9;
73241;PMS5003;65659;49.234;-2.094;2023-04-24T08:57:09;6;6;
73241;PMS5003;65659;49.234;-2.094;2023-04-24T08:59:35;5;5;
73241;PMS5003;65659;49.234;-2.094;2023-04-24T09:01:59;6;6;
73241;PMS5003;65659;49.234;-2.094;2023-04-24T09:04:26;7;7;
73241;PMS5003;65659;49.234;-2.094;2023-04-24T09:06:55;6;5;
73241;PMS5003;65659;49.234;-2.094;2023-04-24T09:14:07;8;8;
73241;PMS5003;65659;49.234;-2.094;2023-04-24T09:16:40;6;6;
73241;PMS5003;65659;49.234;-2.094;2023-04-24T09:21:22;8;8;
73241;PMS5003;65659;49.234;-2.094;2023-04-24T09:24:02;5;5;
73241;PMS5003;65659;49.234;-2.094;2023-04-24T09:26:18;7;6;
73241;PMS5003;65659;49.234;-2.094;2023-04-24T09:28:39;7;7;
73241;PMS5003;65659;49.234;-2.094;2023-04-24T09:31:07;4;4;
73241;PMS5003;65659;49.234;-2.094;2023-04-24T09:33:29;6;6;
73241;PMS5003;65659;49.234;-2.094;2023-04-24T09:35:53;8;8;
73241;PMS5003;65659;49.234;-2.094;2023-04-24T09:38:19;7;7;
73241;PMS5003;65659;49.234;-2.094;2023-04-24T09:40:45;9;8;
73241;PMS5003;65659;49.234;-2.094;2023-04-24T09:43:10;6;6;
73241;PMS5003;65659;49.234;-2.094;2023-04-24T09:45:35;6;6;
73241;PMS5003;65659;49.234;-2.094;2023-04-24T09:48:00;7;7;
73241;PMS5003;65659;49.234;-2.094;2023-04-24T09:50:26;8;8;
73241;PMS5003;65659;49.234;-2.094;2023-04-24T09:52:57;6;6;
73241;PMS5003;65659;49.234;-2.094;2023-04-24T09:57:56;8;7;
73241;PMS5003;65659;49.234;-2.094;2023-04-24T10:00:20;10;10;
73241;PMS5003;65659;49.234;-2.094;2023-04-24T10:02:35;9;9;
73241;PMS5003;65659;49.234;-2.094;2023-04-24T10:07:36;8;8;
73241;PMS5003;65659;49.234;-2.094;2023-04-24T10:09:51;6;6;
73241;PMS5003;65659;49.234;-2.094;2023-04-24T10:12:17;10;10;
73241;PMS5003;65659;49.234;-2.094;2023-04-24T10:14:51;7;7;
73241;PMS5003;65659;49.234;-2.094;2023-04-24T10:17:07;7;6;
73241;PMS5003;65659;49.234;-2.094;2023-04-24T10:19:35;7;7;
73241;PMS5003;65659;49.234;-2.094;2023-04-24T10:21:59;9;8;
73241;PMS5003;65659;49.234;-2.094;2023-04-24T10:24:26;10;10;
73241;PMS5003;65659;49.234;-2.094;2023-04-24T10:26:50;11;10;
73241;PMS5003;65659;49.234;-2.094;2023-04-24T10:29:17;7;7;
73241;PMS5003;65659;49.234;-2.094;2023-04-24T10:31:46;9;8;
73241;PMS5003;65659;49.234;-2.094;2023-04-24T10:34:07;11;10;
73241;PMS5003;65659;49.234;-2.094;2023-04-24T10:36:31;10;9;
73241;PMS5003;65659;49.234;-2.094;2023-04-24T10:38:56;9;9;
73241;PMS5003;65659;49.234;-2.094;2023-04-24T10:41:22;8;8;
73241;PMS5003;65659;49.234;-2.094;2023-04-24T10:44:07;5;5;
73241;PMS5003;65659;49.234;-2.094;2023-04-24T10:46:19;6;6;
73241;PMS5003;65659;49.234;-2.094;2023-04-24T10:48:42;10;9;
73241;PMS5003;65659;49.234;-2.094;2023-04-24T10:51:03;10;10;
73241;PMS5003;65659;49.234;-2.094;2023-04-24T10:53:31;11;10;
73241;PMS5003;65659;49.234;-2.094;2023-04-24T10:55:58;8;8;
73241;PMS5003;65659;49.234;-2.094;2023-04-24T10:58:36;7;7;
73241;PMS5003;65659;49.234;-2.094;2023-04-24T11:10:27;8;8;
73241;PMS5003;65659;49.234;-2.094;2023-04-24T11:12:53;7;7;
73241;PMS5003;65659;49.234;-2.094;2023-04-24T11:15:18;8;7;
73241;PMS5003;65659;49.234;-2.094;2023-04-24T11:17:43;8;7;
73241;PMS5003;65659;49.234;-2.094;2023-04-24T11:20:09;7;7;
73241;PMS5003;65659;49.234;-2.094;2023-04-24T11:22:33;6;6;
73241;PMS5003;65659;49.234;-2.094;2023-04-24T11:24:58;8;8;
73241;PMS5003;65659;49.234;-2.094;2023-04-24T11:27:24;8;8;
73241;PMS5003;65659;49.234;-2.094;2023-04-24T11:29:58;6;6;
73241;PMS5003;65659;49.234;-2.094;2023-04-24T11:32:18;8;8;
73241;PMS5003;65659;49.234;-2.094;2023-04-24T11:34:41;9;8;
73241;PMS5003;65659;49.234;-2.094;2023-04-24T11:37:07;7;7;
73241;PMS5003;65659;49.234;-2.094;2023-04-24T11:39:36;7;6;
73241;PMS5003;65659;49.234;-2.094;2023-04-24T11:42:02;8;8;
73241;PMS5003;65659;49.234;-2.094;2023-04-24T11:44:23;9;9;
73241;PMS5003;65659;49.234;-2.094;2023-04-24T11:46:49;7;7;
73241;PMS5003;65659;49.234;-2.094;2023-04-24T11:51:45;7;6;
73241;PMS5003;65659;49.234;-2.094;2023-04-24T11:54:09;7;6;
73241;PMS5003;65659;49.234;-2.094;2023-04-24T11:56:34;6;6;
73241;PMS5003;65659;49.234;-2.094;2023-04-24T12:03:59;5;5;
73241;PMS5003;65659;49.234;-2.094;2023-04-24T12:06:28;5;5;
73241;PMS5003;65659;49.234;-2.094;2023-04-24T12:11:14;4;4;
73241;PMS5003;65659;49.234;-2.094;2023-04-24T12:13:29;5;5;
73241;PMS5003;65659;49.234;-2.094;2023-04-24T12:16:00;6;6;
73241;PMS5003;65659;49.234;-2.094;2023-04-24T12:18:23;6;5;
73241;PMS5003;65659;49.234;-2.094;2023-04-24T12:20:46;7;6;
73241;PMS5003;65659;49.234;-2.094;2023-04-24T12:23:12;6;6;
73241;PMS5003;65659;49.234;-2.094;2023-04-24T12:25:38;5;4;
73241;PMS5003;65659;49.234;-2.094;2023-04-24T12:28:33;4;3;
73241;PMS5003;65659;49.234;-2.094;2023-04-24T12:30:40;4;4;
73241;PMS5003;65659;49.234;-2.094;2023-04-24T12:35:22;5;5;
73241;PMS5003;65659;49.234;-2.094;2023-04-24T12:37:48;4;4;
73241;PMS5003;65659;49.234;-2.094;2023-04-24T12:40:17;7;6;
73241;PMS5003;65659;49.234;-2.094;2023-04-24T12:42:44;3;3;
73241;PMS5003;65659;49.234;-2.094;2023-04-24T12:45:03;3;3;
73241;PMS5003;65659;49.234;-2.094;2023-04-24T12:47:27;4;4;
73241;PMS5003;65659;49.234;-2.094;2023-04-24T12:49:58;3;3;
73241;PMS5003;65659;49.234;-2.094;2023-04-24T12:52:19;4;3;
73241;PMS5003;65659;49.234;-2.094;2023-04-24T12:54:44;4;4;
73241;PMS5003;65659;49.234;-2.094;2023-04-24T12:57:09;2;2;
73241;PMS5003;65659;49.234;-2.094;2023-04-24T13:02:04;1;1;
73241;PMS5003;65659;49.234;-2.094;2023-04-24T13:04:28;3;3;
73241;PMS5003;65659;49.234;-2.094;2023-04-24T13:06:54;4;4;
73241;PMS5003;65659;49.234;-2.094;2023-04-24T13:09:21;3;3;
73241;PMS5003;65659;49.234;-2.094;2023-04-24T13:11:43;3;3;
73241;PMS5003;65659;49.234;-2.094;2023-04-24T13:14:09;3;2;
73241;PMS5003;65659;49.234;-2.094;2023-04-24T13:16:35;3;3;
73241;PMS5003;65659;49.234;-2.094;2023-04-24T13:19:11;4;4;
73241;PMS5003;65659;49.234;-2.094;2023-04-24T13:21:30;5;4;
73241;PMS5003;65659;49.234;-2.094;2023-04-24T13:26:20;7;5;
73241;PMS5003;65659;49.234;-2.094;2023-04-24T13:28:45;7;6;
73241;PMS5003;65659;49.234;-2.094;2023-04-24T13:31:09;6;6;
73241;PMS5003;65659;49.234;-2.094;2023-04-24T13:33:35;6;6;
73241;PMS5003;65659;49.234;-2.094;2023-04-24T13:36:04;5;5;
73241;PMS5003;65659;49.234;-2.094;2023-04-24T13:38:38;4;3;
73241;PMS5003;65659;49.234;-2.094;2023-04-24T13:40:52;4;4;
73241;PMS5003;65659;49.234;-2.094;2023-04-24T13:43:22;4;4;
73241;PMS5003;65659;49.234;-2.094;2023-04-24T13:45:42;4;4;
73241;PMS5003;65659;49.234;-2.094;2023-04-24T13:48:06;4;4;
73241;PMS5003;65659;49.234;-2.094;2023-04-24T13:50:32;5;4;
73241;PMS5003;65659;49.234;-2.094;2023-04-24T13:52:58;5;5;
73241;PMS5003;65659;49.234;-2.094;2023-04-24T13:55:23;4;4;
73241;PMS5003;65659;49.234;-2.094;2023-04-24T13:57:49;4;3;
73241;PMS5003;65659;49.234;-2.094;2023-04-24T14:00:14;4;4;
73241;PMS5003;65659;49.234;-2.094;2023-04-24T14:02:39;7;6;
73241;PMS5003;65659;49.234;-2.094;2023-04-24T14:05:05;3;3;
73241;PMS5003;65659;49.234;-2.094;2023-04-24T14:07:31;6;6;
73241;PMS5003;65659;49.234;-2.094;2023-04-24T14:09:56;13;12;
73241;PMS5003;65659;49.234;-2.094;2023-04-24T14:12:21;3;3;
73241;PMS5003;65659;49.234;-2.094;2023-04-24T14:14:47;6;6;
73241;PMS5003;65659;49.234;-2.094;2023-04-24T14:17:13;5;4;
73241;PMS5003;65659;49.234;-2.094;2023-04-24T14:19:37;5;5;
73241;PMS5003;65659;49.234;-2.094;2023-04-24T14:22:03;8;6;
73241;PMS5003;65659;49.234;-2.094;2023-04-24T14:24:30;6;5;
73241;PMS5003;65659;49.234;-2.094;2023-04-24T14:26:55;8;6;
73241;PMS5003;65659;49.234;-2.094;2023-04-24T14:29:21;5;5;
73241;PMS5003;65659;49.234;-2.094;2023-04-24T14:31:46;5;4;
73241;PMS5003;65659;49.234;-2.094;2023-04-24T14:34:12;7;7;
73241;PMS5003;65659;49.234;-2.094;2023-04-24T14:36:37;4;4;
73241;PMS5003;65659;49.234;-2.094;2023-04-24T14:39:03;6;6;
73241;PMS5003;65659;49.234;-2.094;2023-04-24T14:41:29;5;4;
73241;PMS5003;65659;49.234;-2.094;2023-04-24T14:43:55;7;7;
73241;PMS5003;65659;49.234;-2.094;2023-04-24T14:46:20;5;4;
73241;PMS5003;65659;49.234;-2.094;2023-04-24T14:48:46;7;6;
73241;PMS5003;65659;49.234;-2.094;2023-04-24T14:51:12;5;5;
73241;PMS5003;65659;49.234;-2.094;2023-04-24T14:53:37;6;6;
73241;PMS5003;65659;49.234;-2.094;2023-04-24T14:56:03;5;5;
73241;PMS5003;65659;49.234;-2.094;2023-04-24T14:58:30;5;5;
73241;PMS5003;65659;49.234;-2.094;2023-04-24T15:00:54;5;5;
73241;PMS5003;65659;49.234;-2.094;2023-04-24T15:03:20;5;5;
73241;PMS5003;65659;49.234;-2.094;2023-04-24T15:05:46;5;5;
73241;PMS5003;65659;49.234;-2.094;2023-04-24T15:08:17;6;6;
73241;PMS5003;65659;49.234;-2.094;2023-04-24T15:10:54;8;7;
73241;PMS5003;65659;49.234;-2.094;2023-04-24T15:13:08;8;7;
73241;PMS5003;65659;49.234;-2.094;2023-04-24T15:15:34;6;6;
73241;PMS5003;65659;49.234;-2.094;2023-04-24T15:17:55;10;8;
73241;PMS5003;65659;49.234;-2.094;2023-04-24T15:20:31;4;3;
73241;PMS5003;65659;49.234;-2.094;2023-04-24T15:22:45;8;7;
73241;PMS5003;65659;49.234;-2.094;2023-04-24T15:25:20;6;6;
73241;PMS5003;65659;49.234;-2.094;2023-04-24T15:27:46;6;6;
73241;PMS5003;65659;49.234;-2.094;2023-04-24T15:30:04;6;5;
73241;PMS5003;65659;49.234;-2.094;2023-04-24T15:32:28;6;6;
73241;PMS5003;65659;49.234;-2.094;2023-04-24T15:34:53;8;8;
73241;PMS5003;65659;49.234;-2.094;2023-04-24T15:37:19;8;7;
73241;PMS5003;65659;49.234;-2.094;2023-04-24T15:39:45;6;6;
73241;PMS5003;65659;49.234;-2.094;2023-04-24T15:42:10;4;4;
73241;PMS5003;65659;49.234;-2.094;2023-04-24T15:44:35;3;2;
73241;PMS5003;65659;49.234;-2.094;2023-04-24T15:47:01;2;2;
73241;PMS5003;65659;49.234;-2.094;2023-04-24T15:49:27;3;2;
73241;PMS5003;65659;49.234;-2.094;2023-04-24T15:51:52;0;0;
73241;PMS5003;65659;49.234;-2.094;2023-04-24T15:54:18;3;2;
73241;PMS5003;65659;49.234;-2.094;2023-04-24T15:56:43;3;2;
73241;PMS5003;65659;49.234;-2.094;2023-04-24T15:59:08;3;3;
73241;PMS5003;65659;49.234;-2.094;2023-04-24T16:01:33;3;3;
73241;PMS5003;65659;49.234;-2.094;2023-04-24T16:03:58;4;4;
73241;PMS5003;65659;49.234;-2.094;2023-04-24T16:06:24;2;2;
73241;PMS5003;65659;49.234;-2.094;2023-04-24T16:08:49;3;3;
73241;PMS5003;65659;49.234;-2.094;2023-04-24T16:11:15;4;4;
73241;PMS5003;65659;49.234;-2.094;2023-04-24T16:13:40;4;3;
73241;PMS5003;65659;49.234;-2.094;2023-04-24T16:16:05;3;3;
73241;PMS5003;65659;49.234;-2.094;2023-04-24T16:18:31;4;4;
73241;PMS5003;65659;49.234;-2.094;2023-04-24T16:20:57;3;3;
73241;PMS5003;65659;49.234;-2.094;2023-04-24T16:23:22;4;3;
73241;PMS5003;65659;49.234;-2.094;2023-04-24T16:25:47;3;3;
73241;PMS5003;65659;49.234;-2.094;2023-04-24T16:28:13;2;2;
73241;PMS5003;65659;49.234;-2.094;2023-04-24T16:30:38;4;4;
73241;PMS5003;65659;49.234;-2.094;2023-04-24T16:33:03;1;1;
73241;PMS5003;65659;49.234;-2.094;2023-04-24T16:35:29;3;3;
73241;PMS5003;65659;49.234;-2.094;2023-04-24T16:37:54;1;1;
73241;PMS5003;65659;49.234;-2.094;2023-04-24T16:40:20;2;2;
73241;PMS5003;65659;49.234;-2.094;2023-04-24T16:42:46;2;2;
73241;PMS5003;65659;49.234;-2.094;2023-04-24T16:45:11;4;4;
73241;PMS5003;65659;49.234;-2.094;2023-04-24T16:47:37;4;4;
73241;PMS5003;65659;49.234;-2.094;2023-04-24T16:50:03;4;4;
73241;PMS5003;65659;49.234;-2.094;2023-04-24T16:52:28;5;5;